sensor_id;sensor_type;location;lat;lon;timestamp;P1;durP1;ratioP1;P2;durP2;ratioP2
52918;SDS011;38793;52.690;6.812;2024-03-06T00:01:34;16.70;;;11.17;;
52918;SDS011;38793;52.690;6.812;2024-03-06T00:04:00;25.33;;;10.60;;
52918;SDS011;38793;52.690;6.812;2024-03-06T00:06:28;15.70;;;10.55;;
52918;SDS011;38793;52.690;6.812;2024-03-06T00:08:55;16.33;;;11.35;;
52918;SDS011;38793;52.690;6.812;2024-03-06T00:11:21;18.58;;;11.18;;
52918;SDS011;38793;52.690;6.812;2024-03-06T00:13:46;24.33;;;10.00;;
52918;SDS011;38793;52.690;6.812;2024-03-06T00:16:13;14.90;;;10.65;;
52918;SDS011;38793;52.690;6.812;2024-03-06T00:18:38;14.25;;;9.60;;
52918;SDS011;38793;52.690;6.812;2024-03-06T00:21:05;13.60;;;10.50;;
52918;SDS011;38793;52.690;6.812;2024-03-06T00:23:31;14.55;;;10.15;;
52918;SDS011;38793;52.690;6.812;2024-03-06T00:25:57;16.98;;;10.00;;
52918;SDS011;38793;52.690;6.812;2024-03-06T00:28:23;18.43;;;11.37;;
52918;SDS011;38793;52.690;6.812;2024-03-06T00:30:49;15.95;;;9.98;;
52918;SDS011;38793;52.690;6.812;2024-03-06T00:33:14;13.93;;;9.53;;
52918;SDS011;38793;52.690;6.812;2024-03-06T00:35:40;14.60;;;9.43;;
52918;SDS011;38793;52.690;6.812;2024-03-06T00:38:06;16.37;;;10.23;;
52918;SDS011;38793;52.690;6.812;2024-03-06T00:40:31;17.83;;;10.50;;
52918;SDS011;38793;52.690;6.812;2024-03-06T00:42:57;13.63;;;10.00;;
52918;SDS011;38793;52.690;6.812;2024-03-06T00:45:23;16.63;;;9.15;;
52918;SDS011;38793;52.690;6.812;2024-03-06T00:47:49;17.00;;;9.23;;
52918;SDS011;38793;52.690;6.812;2024-03-06T00:50:15;17.60;;;9.68;;
52918;SDS011;38793;52.690;6.812;2024-03-06T00:52:42;16.55;;;9.80;;
52918;SDS011;38793;52.690;6.812;2024-03-06T00:55:08;20.70;;;10.15;;
52918;SDS011;38793;52.690;6.812;2024-03-06T00:57:35;16.55;;;9.93;;
52918;SDS011;38793;52.690;6.812;2024-03-06T01:00:01;17.38;;;9.88;;
52918;SDS011;38793;52.690;6.812;2024-03-06T01:02:38;15.93;;;10.45;;
52918;SDS011;38793;52.690;6.812;2024-03-06T01:05:05;18.85;;;9.60;;
52918;SDS011;38793;52.690;6.812;2024-03-06T01:07:32;14.40;;;9.63;;
52918;SDS011;38793;52.690;6.812;2024-03-06T01:09:58;18.23;;;9.95;;
52918;SDS011;38793;52.690;6.812;2024-03-06T01:12:26;17.60;;;10.05;;
52918;SDS011;38793;52.690;6.812;2024-03-06T01:14:52;16.52;;;9.32;;
52918;SDS011;38793;52.690;6.812;2024-03-06T01:17:18;23.58;;;10.40;;
52918;SDS011;38793;52.690;6.812;2024-03-06T01:19:43;13.77;;;8.73;;
52918;SDS011;38793;52.690;6.812;2024-03-06T01:22:09;15.37;;;8.90;;
52918;SDS011;38793;52.690;6.812;2024-03-06T01:24:35;14.70;;;9.48;;
52918;SDS011;38793;52.690;6.812;2024-03-06T01:27:01;13.35;;;9.55;;
52918;SDS011;38793;52.690;6.812;2024-03-06T01:29:29;21.30;;;10.65;;
52918;SDS011;38793;52.690;6.812;2024-03-06T01:31:55;17.60;;;10.23;;
52918;SDS011;38793;52.690;6.812;2024-03-06T01:34:21;19.13;;;9.98;;
52918;SDS011;38793;52.690;6.812;2024-03-06T01:36:47;17.10;;;9.50;;
52918;SDS011;38793;52.690;6.812;2024-03-06T01:39:13;20.50;;;11.05;;
52918;SDS011;38793;52.690;6.812;2024-03-06T01:41:48;16.10;;;10.35;;
52918;SDS011;38793;52.690;6.812;2024-03-06T01:44:16;16.05;;;9.88;;
52918;SDS011;38793;52.690;6.812;2024-03-06T01:46:43;16.42;;;9.73;;
52918;SDS011;38793;52.690;6.812;2024-03-06T01:49:12;13.80;;;9.32;;
52918;SDS011;38793;52.690;6.812;2024-03-06T01:51:42;13.48;;;9.05;;
52918;SDS011;38793;52.690;6.812;2024-03-06T01:54:13;13.70;;;9.68;;
52918;SDS011;38793;52.690;6.812;2024-03-06T01:59:09;21.67;;;10.20;;
52918;SDS011;38793;52.690;6.812;2024-03-06T02:04:01;17.48;;;11.30;;
52918;SDS011;38793;52.690;6.812;2024-03-06T02:06:27;19.65;;;10.18;;
52918;SDS011;38793;52.690;6.812;2024-03-06T02:08:54;18.65;;;9.82;;
52918;SDS011;38793;52.690;6.812;2024-03-06T02:11:20;15.57;;;10.90;;
52918;SDS011;38793;52.690;6.812;2024-03-06T02:13:46;15.15;;;10.50;;
52918;SDS011;38793;52.690;6.812;2024-03-06T02:16:14;14.65;;;9.27;;
52918;SDS011;38793;52.690;6.812;2024-03-06T02:18:50;13.25;;;10.05;;
52918;SDS011;38793;52.690;6.812;2024-03-06T02:21:17;23.73;;;10.88;;
52918;SDS011;38793;52.690;6.812;2024-03-06T02:23:43;14.02;;;9.98;;
52918;SDS011;38793;52.690;6.812;2024-03-06T02:26:09;16.70;;;10.90;;
52918;SDS011;38793;52.690;6.812;2024-03-06T02:28:35;17.77;;;11.02;;
52918;SDS011;38793;52.690;6.812;2024-03-06T02:31:01;14.80;;;11.53;;
52918;SDS011;38793;52.690;6.812;2024-03-06T02:33:27;12.10;;;9.70;;
52918;SDS011;38793;52.690;6.812;2024-03-06T02:35:52;14.33;;;10.93;;
52918;SDS011;38793;52.690;6.812;2024-03-06T02:38:18;11.77;;;10.10;;
52918;SDS011;38793;52.690;6.812;2024-03-06T02:40:44;16.60;;;10.10;;
52918;SDS011;38793;52.690;6.812;2024-03-06T02:43:10;15.10;;;10.82;;
52918;SDS011;38793;52.690;6.812;2024-03-06T02:45:35;23.43;;;11.00;;
52918;SDS011;38793;52.690;6.812;2024-03-06T02:48:01;15.33;;;10.17;;
52918;SDS011;38793;52.690;6.812;2024-03-06T02:50:27;19.27;;;10.40;;
52918;SDS011;38793;52.690;6.812;2024-03-06T02:52:52;15.70;;;10.13;;
52918;SDS011;38793;52.690;6.812;2024-03-06T02:55:18;13.77;;;9.93;;
52918;SDS011;38793;52.690;6.812;2024-03-06T02:57:44;12.43;;;10.38;;
52918;SDS011;38793;52.690;6.812;2024-03-06T03:00:10;14.03;;;10.23;;
52918;SDS011;38793;52.690;6.812;2024-03-06T03:02:41;15.50;;;10.75;;
52918;SDS011;38793;52.690;6.812;2024-03-06T03:05:07;18.10;;;10.95;;
52918;SDS011;38793;52.690;6.812;2024-03-06T03:07:33;14.15;;;10.32;;
52918;SDS011;38793;52.690;6.812;2024-03-06T03:09:59;18.83;;;11.50;;
52918;SDS011;38793;52.690;6.812;2024-03-06T03:12:25;23.37;;;12.00;;
52918;SDS011;38793;52.690;6.812;2024-03-06T03:14:50;18.77;;;11.40;;
52918;SDS011;38793;52.690;6.812;2024-03-06T03:17:17;18.13;;;10.73;;
52918;SDS011;38793;52.690;6.812;2024-03-06T03:19:44;16.27;;;10.30;;
52918;SDS011;38793;52.690;6.812;2024-03-06T03:22:09;19.15;;;11.73;;
52918;SDS011;38793;52.690;6.812;2024-03-06T03:24:35;17.65;;;11.85;;
52918;SDS011;38793;52.690;6.812;2024-03-06T03:27:02;22.35;;;12.05;;
52918;SDS011;38793;52.690;6.812;2024-03-06T03:29:28;15.95;;;10.88;;
52918;SDS011;38793;52.690;6.812;2024-03-06T03:31:54;16.80;;;11.18;;
52918;SDS011;38793;52.690;6.812;2024-03-06T03:34:20;19.07;;;12.57;;
52918;SDS011;38793;52.690;6.812;2024-03-06T03:36:46;16.40;;;12.03;;
52918;SDS011;38793;52.690;6.812;2024-03-06T03:39:13;21.25;;;11.73;;
52918;SDS011;38793;52.690;6.812;2024-03-06T03:41:44;20.20;;;12.15;;
52918;SDS011;38793;52.690;6.812;2024-03-06T03:44:14;18.48;;;10.68;;
52918;SDS011;38793;52.690;6.812;2024-03-06T03:46:40;25.58;;;12.27;;
52918;SDS011;38793;52.690;6.812;2024-03-06T03:49:06;29.27;;;13.35;;
52918;SDS011;38793;52.690;6.812;2024-03-06T03:51:31;24.33;;;12.43;;
52918;SDS011;38793;52.690;6.812;2024-03-06T03:53:57;17.33;;;12.27;;
52918;SDS011;38793;52.690;6.812;2024-03-06T03:56:23;17.03;;;11.60;;
52918;SDS011;38793;52.690;6.812;2024-03-06T03:58:48;22.57;;;12.83;;
52918;SDS011;38793;52.690;6.812;2024-03-06T04:01:14;19.63;;;12.27;;
52918;SDS011;38793;52.690;6.812;2024-03-06T04:03:40;23.65;;;12.88;;
52918;SDS011;38793;52.690;6.812;2024-03-06T04:06:07;25.70;;;14.45;;
52918;SDS011;38793;52.690;6.812;2024-03-06T04:08:33;24.50;;;13.52;;
52918;SDS011;38793;52.690;6.812;2024-03-06T04:10:59;27.07;;;13.57;;
52918;SDS011;38793;52.690;6.812;2024-03-06T04:13:25;30.30;;;14.77;;
52918;SDS011;38793;52.690;6.812;2024-03-06T04:15:51;30.05;;;13.50;;
52918;SDS011;38793;52.690;6.812;2024-03-06T04:18:17;22.17;;;13.17;;
52918;SDS011;38793;52.690;6.812;2024-03-06T04:20:42;16.20;;;13.43;;
52918;SDS011;38793;52.690;6.812;2024-03-06T04:23:08;22.73;;;14.63;;
52918;SDS011;38793;52.690;6.812;2024-03-06T04:25:34;23.77;;;13.83;;
52918;SDS011;38793;52.690;6.812;2024-03-06T04:27:59;21.67;;;13.97;;
52918;SDS011;38793;52.690;6.812;2024-03-06T04:30:25;22.80;;;15.07;;
52918;SDS011;38793;52.690;6.812;2024-03-06T04:32:50;24.80;;;14.17;;
52918;SDS011;38793;52.690;6.812;2024-03-06T04:35:16;22.43;;;15.10;;
52918;SDS011;38793;52.690;6.812;2024-03-06T04:37:42;26.77;;;14.57;;
52918;SDS011;38793;52.690;6.812;2024-03-06T04:40:08;20.77;;;13.82;;
52918;SDS011;38793;52.690;6.812;2024-03-06T04:42:35;24.88;;;14.65;;
52918;SDS011;38793;52.690;6.812;2024-03-06T04:45:02;20.17;;;14.23;;
52918;SDS011;38793;52.690;6.812;2024-03-06T04:47:37;23.30;;;14.73;;
52918;SDS011;38793;52.690;6.812;2024-03-06T04:50:03;23.67;;;15.40;;
52918;SDS011;38793;52.690;6.812;2024-03-06T04:52:32;27.38;;;15.13;;
52918;SDS011;38793;52.690;6.812;2024-03-06T04:54:59;24.08;;;15.77;;
52918;SDS011;38793;52.690;6.812;2024-03-06T04:57:25;26.23;;;15.63;;
52918;SDS011;38793;52.690;6.812;2024-03-06T04:59:52;26.23;;;15.32;;
52918;SDS011;38793;52.690;6.812;2024-03-06T05:02:17;35.13;;;15.50;;
52918;SDS011;38793;52.690;6.812;2024-03-06T05:04:43;38.30;;;16.50;;
52918;SDS011;38793;52.690;6.812;2024-03-06T05:07:08;23.67;;;17.10;;
52918;SDS011;38793;52.690;6.812;2024-03-06T05:09:34;27.50;;;16.90;;
52918;SDS011;38793;52.690;6.812;2024-03-06T05:12:00;31.80;;;17.10;;
52918;SDS011;38793;52.690;6.812;2024-03-06T05:14:26;21.73;;;15.23;;
52918;SDS011;38793;52.690;6.812;2024-03-06T05:16:51;22.77;;;15.47;;
52918;SDS011;38793;52.690;6.812;2024-03-06T05:21:43;31.92;;;17.52;;
52918;SDS011;38793;52.690;6.812;2024-03-06T05:24:09;28.53;;;17.37;;
52918;SDS011;38793;52.690;6.812;2024-03-06T05:26:35;33.50;;;18.73;;
52918;SDS011;38793;52.690;6.812;2024-03-06T05:29:00;33.40;;;18.80;;
52918;SDS011;38793;52.690;6.812;2024-03-06T05:31:26;30.87;;;18.43;;
52918;SDS011;38793;52.690;6.812;2024-03-06T05:33:51;30.07;;;18.03;;
52918;SDS011;38793;52.690;6.812;2024-03-06T05:36:17;28.90;;;18.40;;
52918;SDS011;38793;52.690;6.812;2024-03-06T05:38:46;31.90;;;19.90;;
52918;SDS011;38793;52.690;6.812;2024-03-06T05:41:13;32.97;;;20.92;;
52918;SDS011;38793;52.690;6.812;2024-03-06T05:43:38;34.92;;;20.17;;
52918;SDS011;38793;52.690;6.812;2024-03-06T05:46:06;34.38;;;20.88;;
52918;SDS011;38793;52.690;6.812;2024-03-06T05:48:31;48.63;;;20.50;;
52918;SDS011;38793;52.690;6.812;2024-03-06T05:50:58;34.28;;;20.17;;
52918;SDS011;38793;52.690;6.812;2024-03-06T05:53:24;33.47;;;20.92;;
52918;SDS011;38793;52.690;6.812;2024-03-06T05:55:50;35.37;;;22.43;;
52918;SDS011;38793;52.690;6.812;2024-03-06T05:58:16;31.90;;;21.02;;
52918;SDS011;38793;52.690;6.812;2024-03-06T06:00:42;33.30;;;19.87;;
52918;SDS011;38793;52.690;6.812;2024-03-06T06:03:08;44.15;;;21.08;;
52918;SDS011;38793;52.690;6.812;2024-03-06T06:05:36;38.45;;;21.50;;
52918;SDS011;38793;52.690;6.812;2024-03-06T06:08:04;36.58;;;20.88;;
52918;SDS011;38793;52.690;6.812;2024-03-06T06:10:30;38.92;;;21.27;;
52918;SDS011;38793;52.690;6.812;2024-03-06T06:12:55;36.15;;;19.77;;
52918;SDS011;38793;52.690;6.812;2024-03-06T06:15:21;47.53;;;21.42;;
52918;SDS011;38793;52.690;6.812;2024-03-06T06:17:47;37.97;;;20.30;;
52918;SDS011;38793;52.690;6.812;2024-03-06T06:20:13;39.87;;;20.60;;
52918;SDS011;38793;52.690;6.812;2024-03-06T06:22:40;37.25;;;21.85;;
52918;SDS011;38793;52.690;6.812;2024-03-06T06:25:09;39.53;;;22.38;;
52918;SDS011;38793;52.690;6.812;2024-03-06T06:27:35;38.30;;;23.45;;
52918;SDS011;38793;52.690;6.812;2024-03-06T06:30:01;42.38;;;23.23;;
52918;SDS011;38793;52.690;6.812;2024-03-06T06:32:26;45.37;;;22.80;;
52918;SDS011;38793;52.690;6.812;2024-03-06T06:34:52;42.07;;;23.87;;
52918;SDS011;38793;52.690;6.812;2024-03-06T06:37:18;36.10;;;20.67;;
52918;SDS011;38793;52.690;6.812;2024-03-06T06:42:10;32.30;;;20.17;;
52918;SDS011;38793;52.690;6.812;2024-03-06T06:44:36;36.73;;;20.63;;
52918;SDS011;38793;52.690;6.812;2024-03-06T06:47:02;41.00;;;20.70;;
52918;SDS011;38793;52.690;6.812;2024-03-06T06:49:27;40.22;;;20.30;;
52918;SDS011;38793;52.690;6.812;2024-03-06T06:51:53;37.22;;;20.50;;
52918;SDS011;38793;52.690;6.812;2024-03-06T06:54:19;36.03;;;20.20;;
52918;SDS011;38793;52.690;6.812;2024-03-06T06:56:44;31.27;;;19.70;;
52918;SDS011;38793;52.690;6.812;2024-03-06T06:59:10;32.50;;;21.50;;
52918;SDS011;38793;52.690;6.812;2024-03-06T07:01:37;33.28;;;21.13;;
52918;SDS011;38793;52.690;6.812;2024-03-06T07:04:02;40.40;;;19.98;;
52918;SDS011;38793;52.690;6.812;2024-03-06T07:06:28;26.58;;;19.35;;
52918;SDS011;38793;52.690;6.812;2024-03-06T07:08:54;39.90;;;20.60;;
52918;SDS011;38793;52.690;6.812;2024-03-06T07:11:20;31.87;;;19.50;;
52918;SDS011;38793;52.690;6.812;2024-03-06T07:13:46;33.30;;;20.00;;
52918;SDS011;38793;52.690;6.812;2024-03-06T07:16:12;33.37;;;20.57;;
52918;SDS011;38793;52.690;6.812;2024-03-06T07:18:37;29.03;;;20.50;;
52918;SDS011;38793;52.690;6.812;2024-03-06T07:21:03;31.70;;;19.77;;
52918;SDS011;38793;52.690;6.812;2024-03-06T07:23:29;28.40;;;18.50;;
52918;SDS011;38793;52.690;6.812;2024-03-06T07:25:54;32.70;;;20.33;;
52918;SDS011;38793;52.690;6.812;2024-03-06T07:28:22;36.72;;;20.48;;
52918;SDS011;38793;52.690;6.812;2024-03-06T07:30:48;30.90;;;19.50;;
52918;SDS011;38793;52.690;6.812;2024-03-06T07:33:13;31.97;;;20.57;;
52918;SDS011;38793;52.690;6.812;2024-03-06T07:35:39;32.37;;;20.73;;
52918;SDS011;38793;52.690;6.812;2024-03-06T07:38:05;35.15;;;20.25;;
52918;SDS011;38793;52.690;6.812;2024-03-06T07:40:31;33.53;;;21.85;;
52918;SDS011;38793;52.690;6.812;2024-03-06T07:42:57;46.72;;;22.10;;
52918;SDS011;38793;52.690;6.812;2024-03-06T07:45:25;37.85;;;22.55;;
52918;SDS011;38793;52.690;6.812;2024-03-06T07:50:17;34.47;;;21.58;;
52918;SDS011;38793;52.690;6.812;2024-03-06T07:52:45;34.65;;;21.30;;
52918;SDS011;38793;52.690;6.812;2024-03-06T07:55:11;44.28;;;23.02;;
52918;SDS011;38793;52.690;6.812;2024-03-06T07:57:37;40.72;;;22.98;;
52918;SDS011;38793;52.690;6.812;2024-03-06T08:00:03;34.95;;;23.52;;
52918;SDS011;38793;52.690;6.812;2024-03-06T08:02:39;38.08;;;24.58;;
52918;SDS011;38793;52.690;6.812;2024-03-06T08:05:11;38.75;;;24.48;;
52918;SDS011;38793;52.690;6.812;2024-03-06T08:07:38;39.92;;;25.80;;
52918;SDS011;38793;52.690;6.812;2024-03-06T08:10:07;47.92;;;24.05;;
52918;SDS011;38793;52.690;6.812;2024-03-06T08:12:38;39.03;;;24.35;;
52918;SDS011;38793;52.690;6.812;2024-03-06T08:15:05;42.17;;;25.42;;
52918;SDS011;38793;52.690;6.812;2024-03-06T08:17:34;45.25;;;26.17;;
52918;SDS011;38793;52.690;6.812;2024-03-06T08:20:01;51.10;;;25.85;;
52918;SDS011;38793;52.690;6.812;2024-03-06T08:22:28;45.05;;;24.85;;
52918;SDS011;38793;52.690;6.812;2024-03-06T08:24:53;42.77;;;25.57;;
52918;SDS011;38793;52.690;6.812;2024-03-06T08:27:20;41.00;;;25.42;;
52918;SDS011;38793;52.690;6.812;2024-03-06T08:29:45;45.30;;;26.57;;
52918;SDS011;38793;52.690;6.812;2024-03-06T08:32:11;37.37;;;26.07;;
52918;SDS011;38793;52.690;6.812;2024-03-06T08:34:36;38.87;;;26.27;;
52918;SDS011;38793;52.690;6.812;2024-03-06T08:37:02;45.30;;;26.97;;
52918;SDS011;38793;52.690;6.812;2024-03-06T08:39:28;41.38;;;27.05;;
52918;SDS011;38793;52.690;6.812;2024-03-06T08:41:54;45.42;;;28.30;;
52918;SDS011;38793;52.690;6.812;2024-03-06T08:44:19;45.67;;;27.90;;
52918;SDS011;38793;52.690;6.812;2024-03-06T08:46:45;51.13;;;30.57;;
52918;SDS011;38793;52.690;6.812;2024-03-06T08:49:11;52.33;;;27.77;;
52918;SDS011;38793;52.690;6.812;2024-03-06T08:51:36;48.30;;;27.80;;
52918;SDS011;38793;52.690;6.812;2024-03-06T08:54:02;42.97;;;26.10;;
52918;SDS011;38793;52.690;6.812;2024-03-06T08:56:27;45.47;;;28.23;;
52918;SDS011;38793;52.690;6.812;2024-03-06T08:58:53;45.53;;;27.53;;
52918;SDS011;38793;52.690;6.812;2024-03-06T09:01:19;55.47;;;27.23;;
52918;SDS011;38793;52.690;6.812;2024-03-06T09:03:44;52.87;;;28.67;;
52918;SDS011;38793;52.690;6.812;2024-03-06T09:06:10;38.67;;;26.33;;
52918;SDS011;38793;52.690;6.812;2024-03-06T09:08:35;40.80;;;25.50;;
52918;SDS011;38793;52.690;6.812;2024-03-06T09:11:01;42.55;;;27.25;;
52918;SDS011;38793;52.690;6.812;2024-03-06T09:13:27;44.58;;;25.63;;
52918;SDS011;38793;52.690;6.812;2024-03-06T09:15:53;42.00;;;27.77;;
52918;SDS011;38793;52.690;6.812;2024-03-06T09:18:19;54.67;;;27.75;;
52918;SDS011;38793;52.690;6.812;2024-03-06T09:20:44;41.03;;;27.10;;
52918;SDS011;38793;52.690;6.812;2024-03-06T09:25:36;51.00;;;27.63;;
52918;SDS011;38793;52.690;6.812;2024-03-06T09:28:02;39.60;;;25.57;;
52918;SDS011;38793;52.690;6.812;2024-03-06T09:30:30;40.30;;;26.63;;
52918;SDS011;38793;52.690;6.812;2024-03-06T09:32:55;46.17;;;26.97;;
52918;SDS011;38793;52.690;6.812;2024-03-06T09:35:21;41.47;;;24.60;;
52918;SDS011;38793;52.690;6.812;2024-03-06T09:37:47;44.77;;;26.80;;
52918;SDS011;38793;52.690;6.812;2024-03-06T09:40:19;43.50;;;28.13;;
52918;SDS011;38793;52.690;6.812;2024-03-06T09:42:47;43.05;;;26.40;;
52918;SDS011;38793;52.690;6.812;2024-03-06T09:45:14;45.38;;;26.88;;
52918;SDS011;38793;52.690;6.812;2024-03-06T09:50:08;43.30;;;28.55;;
52918;SDS011;38793;52.690;6.812;2024-03-06T09:52:35;47.10;;;28.73;;
52918;SDS011;38793;52.690;6.812;2024-03-06T09:55:02;41.45;;;28.08;;
52918;SDS011;38793;52.690;6.812;2024-03-06T09:57:29;40.97;;;28.20;;
52918;SDS011;38793;52.690;6.812;2024-03-06T09:59:55;47.08;;;28.02;;
52918;SDS011;38793;52.690;6.812;2024-03-06T10:04:55;48.80;;;28.67;;
52918;SDS011;38793;52.690;6.812;2024-03-06T10:09:47;42.38;;;26.83;;
52918;SDS011;38793;52.690;6.812;2024-03-06T10:12:16;41.67;;;26.93;;
52918;SDS011;38793;52.690;6.812;2024-03-06T10:14:51;40.78;;;26.95;;
52918;SDS011;38793;52.690;6.812;2024-03-06T10:17:21;44.70;;;27.42;;
52918;SDS011;38793;52.690;6.812;2024-03-06T10:19:48;42.58;;;27.42;;
52918;SDS011;38793;52.690;6.812;2024-03-06T10:22:18;40.55;;;26.80;;
52918;SDS011;38793;52.690;6.812;2024-03-06T10:24:44;44.38;;;27.88;;
52918;SDS011;38793;52.690;6.812;2024-03-06T10:27:14;39.47;;;25.83;;
52918;SDS011;38793;52.690;6.812;2024-03-06T10:29:42;41.10;;;25.55;;
52918;SDS011;38793;52.690;6.812;2024-03-06T10:32:08;46.67;;;28.53;;
52918;SDS011;38793;52.690;6.812;2024-03-06T10:34:34;44.58;;;27.50;;
52918;SDS011;38793;52.690;6.812;2024-03-06T10:37:00;43.60;;;26.60;;
52918;SDS011;38793;52.690;6.812;2024-03-06T10:39:31;40.42;;;27.58;;
52918;SDS011;38793;52.690;6.812;2024-03-06T10:42:03;38.63;;;26.92;;
52918;SDS011;38793;52.690;6.812;2024-03-06T10:44:32;41.63;;;26.33;;
52918;SDS011;38793;52.690;6.812;2024-03-06T10:47:04;43.67;;;27.35;;
52918;SDS011;38793;52.690;6.812;2024-03-06T10:49:31;41.80;;;28.13;;
52918;SDS011;38793;52.690;6.812;2024-03-06T10:52:03;41.58;;;27.23;;
52918;SDS011;38793;52.690;6.812;2024-03-06T10:54:31;43.50;;;27.35;;
52918;SDS011;38793;52.690;6.812;2024-03-06T10:56:59;48.28;;;28.73;;
52918;SDS011;38793;52.690;6.812;2024-03-06T10:59:27;42.50;;;28.20;;
52918;SDS011;38793;52.690;6.812;2024-03-06T11:01:57;42.28;;;27.17;;
52918;SDS011;38793;52.690;6.812;2024-03-06T11:04:26;41.33;;;27.88;;
52918;SDS011;38793;52.690;6.812;2024-03-06T11:07:02;38.83;;;26.10;;
52918;SDS011;38793;52.690;6.812;2024-03-06T11:09:32;48.55;;;27.63;;
52918;SDS011;38793;52.690;6.812;2024-03-06T11:12:01;39.45;;;26.30;;
52918;SDS011;38793;52.690;6.812;2024-03-06T11:14:27;37.20;;;24.92;;
52918;SDS011;38793;52.690;6.812;2024-03-06T11:17:05;45.10;;;26.58;;
52918;SDS011;38793;52.690;6.812;2024-03-06T11:33:19;35.90;;;25.33;;
52918;SDS011;38793;52.690;6.812;2024-03-06T11:39:00;41.22;;;25.73;;
52918;SDS011;38793;52.690;6.812;2024-03-06T11:41:46;41.25;;;25.02;;
52918;SDS011;38793;52.690;6.812;2024-03-06T11:44:14;38.88;;;25.90;;
52918;SDS011;38793;52.690;6.812;2024-03-06T11:46:41;43.17;;;25.58;;
52918;SDS011;38793;52.690;6.812;2024-03-06T11:49:41;38.45;;;23.95;;
52918;SDS011;38793;52.690;6.812;2024-03-06T11:52:02;42.28;;;27.30;;
52918;SDS011;38793;52.690;6.812;2024-03-06T11:54:33;41.28;;;25.77;;
52918;SDS011;38793;52.690;6.812;2024-03-06T11:57:00;42.35;;;25.80;;
52918;SDS011;38793;52.690;6.812;2024-03-06T12:01:54;38.08;;;25.92;;
52918;SDS011;38793;52.690;6.812;2024-03-06T12:04:21;34.60;;;24.50;;
52918;SDS011;38793;52.690;6.812;2024-03-06T12:06:48;42.03;;;27.23;;
52918;SDS011;38793;52.690;6.812;2024-03-06T12:09:14;40.58;;;26.08;;
52918;SDS011;38793;52.690;6.812;2024-03-06T12:11:40;37.75;;;27.23;;
52918;SDS011;38793;52.690;6.812;2024-03-06T12:14:13;43.85;;;28.15;;
52918;SDS011;38793;52.690;6.812;2024-03-06T12:16:40;44.78;;;28.00;;
52918;SDS011;38793;52.690;6.812;2024-03-06T12:19:05;38.40;;;23.87;;
52918;SDS011;38793;52.690;6.812;2024-03-06T12:21:31;39.85;;;25.02;;
52918;SDS011;38793;52.690;6.812;2024-03-06T12:24:07;35.85;;;24.20;;
52918;SDS011;38793;52.690;6.812;2024-03-06T12:26:34;37.88;;;24.15;;
52918;SDS011;38793;52.690;6.812;2024-03-06T12:29:05;37.00;;;24.77;;
52918;SDS011;38793;52.690;6.812;2024-03-06T12:31:31;41.72;;;26.00;;
52918;SDS011;38793;52.690;6.812;2024-03-06T12:33:58;33.70;;;23.77;;
52918;SDS011;38793;52.690;6.812;2024-03-06T12:36:25;36.45;;;23.63;;
52918;SDS011;38793;52.690;6.812;2024-03-06T12:41:20;37.17;;;24.55;;
52918;SDS011;38793;52.690;6.812;2024-03-06T12:43:45;38.13;;;26.33;;
52918;SDS011;38793;52.690;6.812;2024-03-06T12:46:11;36.47;;;23.63;;
52918;SDS011;38793;52.690;6.812;2024-03-06T12:48:37;41.05;;;24.63;;
52918;SDS011;38793;52.690;6.812;2024-03-06T12:51:02;39.92;;;25.23;;
52918;SDS011;38793;52.690;6.812;2024-03-06T12:53:29;40.10;;;27.35;;
52918;SDS011;38793;52.690;6.812;2024-03-06T12:55:56;41.05;;;27.67;;
52918;SDS011;38793;52.690;6.812;2024-03-06T12:58:21;42.83;;;26.43;;
52918;SDS011;38793;52.690;6.812;2024-03-06T13:00:47;39.92;;;27.40;;
52918;SDS011;38793;52.690;6.812;2024-03-06T13:03:13;39.13;;;28.02;;
52918;SDS011;38793;52.690;6.812;2024-03-06T13:05:38;39.33;;;26.40;;
52918;SDS011;38793;52.690;6.812;2024-03-06T13:08:04;40.07;;;27.90;;
52918;SDS011;38793;52.690;6.812;2024-03-06T13:10:30;36.13;;;23.65;;
52918;SDS011;38793;52.690;6.812;2024-03-06T13:12:55;31.50;;;23.13;;
52918;SDS011;38793;52.690;6.812;2024-03-06T13:15:21;38.43;;;20.13;;
52918;SDS011;38793;52.690;6.812;2024-03-06T13:17:47;40.45;;;22.60;;
52918;SDS011;38793;52.690;6.812;2024-03-06T13:20:12;34.03;;;23.27;;
52918;SDS011;38793;52.690;6.812;2024-03-06T13:22:38;29.67;;;23.20;;
52918;SDS011;38793;52.690;6.812;2024-03-06T13:25:04;37.75;;;24.23;;
52918;SDS011;38793;52.690;6.812;2024-03-06T13:29:56;30.35;;;23.58;;
52918;SDS011;38793;52.690;6.812;2024-03-06T13:32:23;36.20;;;24.20;;
52918;SDS011;38793;52.690;6.812;2024-03-06T13:34:48;37.90;;;25.58;;
52918;SDS011;38793;52.690;6.812;2024-03-06T13:37:14;41.30;;;25.85;;
52918;SDS011;38793;52.690;6.812;2024-03-06T13:39:41;32.90;;;25.67;;
52918;SDS011;38793;52.690;6.812;2024-03-06T13:42:07;39.60;;;25.85;;
52918;SDS011;38793;52.690;6.812;2024-03-06T13:44:35;36.80;;;25.10;;
52918;SDS011;38793;52.690;6.812;2024-03-06T13:47:01;30.50;;;23.77;;
52918;SDS011;38793;52.690;6.812;2024-03-06T13:49:40;35.00;;;26.30;;
52918;SDS011;38793;52.690;6.812;2024-03-06T13:52:07;36.72;;;26.15;;
52918;SDS011;38793;52.690;6.812;2024-03-06T13:54:38;36.72;;;25.90;;
52918;SDS011;38793;52.690;6.812;2024-03-06T13:57:05;38.40;;;25.17;;
52918;SDS011;38793;52.690;6.812;2024-03-06T13:59:32;34.28;;;25.15;;
52918;SDS011;38793;52.690;6.812;2024-03-06T14:01:58;32.90;;;24.33;;
52918;SDS011;38793;52.690;6.812;2024-03-06T14:04:24;34.20;;;24.58;;
52918;SDS011;38793;52.690;6.812;2024-03-06T14:06:51;37.03;;;26.20;;
52918;SDS011;38793;52.690;6.812;2024-03-06T14:09:17;35.85;;;23.50;;
52918;SDS011;38793;52.690;6.812;2024-03-06T14:11:42;33.73;;;24.13;;
52918;SDS011;38793;52.690;6.812;2024-03-06T14:14:08;36.28;;;24.33;;
52918;SDS011;38793;52.690;6.812;2024-03-06T14:16:34;34.28;;;23.65;;
52918;SDS011;38793;52.690;6.812;2024-03-06T14:21:25;35.75;;;24.58;;
52918;SDS011;38793;52.690;6.812;2024-03-06T14:23:51;31.90;;;22.33;;
52918;SDS011;38793;52.690;6.812;2024-03-06T14:26:17;35.70;;;23.00;;
52918;SDS011;38793;52.690;6.812;2024-03-06T14:28:42;32.95;;;22.27;;
52918;SDS011;38793;52.690;6.812;2024-03-06T14:31:08;37.85;;;23.67;;
52918;SDS011;38793;52.690;6.812;2024-03-06T14:33:37;31.30;;;23.42;;
52918;SDS011;38793;52.690;6.812;2024-03-06T14:36:04;36.03;;;24.38;;
52918;SDS011;38793;52.690;6.812;2024-03-06T14:38:30;33.42;;;22.80;;
52918;SDS011;38793;52.690;6.812;2024-03-06T14:40:56;31.67;;;24.10;;
52918;SDS011;38793;52.690;6.812;2024-03-06T14:43:21;39.33;;;25.55;;
52918;SDS011;38793;52.690;6.812;2024-03-06T14:45:47;37.00;;;24.67;;
52918;SDS011;38793;52.690;6.812;2024-03-06T14:48:13;33.38;;;22.30;;
52918;SDS011;38793;52.690;6.812;2024-03-06T14:50:40;41.05;;;25.38;;
52918;SDS011;38793;52.690;6.812;2024-03-06T14:53:06;34.88;;;24.30;;
52918;SDS011;38793;52.690;6.812;2024-03-06T14:55:31;32.65;;;23.20;;
52918;SDS011;38793;52.690;6.812;2024-03-06T14:57:57;35.17;;;24.77;;
52918;SDS011;38793;52.690;6.812;2024-03-06T15:00:23;35.37;;;24.27;;
52918;SDS011;38793;52.690;6.812;2024-03-06T15:02:48;33.63;;;23.40;;
52918;SDS011;38793;52.690;6.812;2024-03-06T15:05:14;34.03;;;24.50;;
52918;SDS011;38793;52.690;6.812;2024-03-06T15:07:40;36.60;;;24.55;;
52918;SDS011;38793;52.690;6.812;2024-03-06T15:10:06;33.30;;;24.73;;